Time;durP1;ratioP1;P1;durP2;ratioP2;P2;SDS_P1;SDS_P2;PMS_P1;PMS_P2;Temp;Humidity;BMP_temperature;BMP_pressure;BME280_temperature;BME280_humidity;BME280_pressure;Samples;Min_cycle;Max_cycle;Signal;HPM_P1;HPM_P2
2023/03/13 00:00:34;;;;;;;0.30;0.30;;;;;;;17.63;44.74;100062.66;5116789;28;20073;-39
2023/03/13 00:03:00;;;;;;;0.30;0.30;;;;;;;17.62;44.58;100058.25;5098111;28;20082;-39
2023/03/13 00:05:25;;;;;;;0.30;0.30;;;;;;;17.63;44.76;100040.63;5116911;28;20058;-39
2023/03/13 00:07:51;;;;;;;0.30;0.30;;;;;;;17.63;44.67;100038.69;5116732;28;20399;-39
2023/03/13 00:10:17;;;;;;;0.30;0.30;;;;;;;17.63;44.96;100027.66;5117099;28;20050;-39
2023/03/13 00:12:42;;;;;;;0.30;0.30;;;;;;;17.64;44.61;100031.25;5116232;28;20044;-39
2023/03/13 00:15:08;;;;;;;0.30;0.30;;;;;;;17.65;44.66;100021.84;5116028;28;20053;-39
2023/03/13 00:17:34;;;;;;;0.30;0.30;;;;;;;17.62;44.72;100020.53;5114776;28;20486;-39
2023/03/13 00:20:00;;;;;;;0.30;0.30;;;;;;;17.64;44.69;100015.53;5096801;28;20430;-39
2023/03/13 00:22:26;;;;;;;0.30;0.30;;;;;;;17.63;44.64;100005.66;5095936;28;20128;-39
2023/03/13 00:24:51;;;;;;;0.30;0.30;;;;;;;17.64;44.70;100000.94;5096229;28;20559;-39
2023/03/13 00:27:17;;;;;;;0.40;0.40;;;;;;;17.64;44.69;100000.94;5096158;28;20693;-39
2023/03/13 00:29:43;;;;;;;0.40;0.40;;;;;;;17.63;44.54;99993.81;5096520;28;20043;-39
2023/03/13 00:32:08;;;;;;;0.30;0.30;;;;;;;17.63;44.62;99982.81;5095767;28;20444;-39
2023/03/13 00:34:34;;;;;;;0.30;0.30;;;;;;;17.63;44.82;99982.81;5114745;28;20440;-39
2023/03/13 00:37:00;;;;;;;0.30;0.30;;;;;;;17.63;44.99;99969.84;5106071;27;20411;-39
2023/03/13 00:39:25;;;;;;;0.40;0.40;;;;;;;17.63;44.72;99980.88;5095891;28;20383;-39
2023/03/13 00:41:51;;;;;;;0.30;0.30;;;;;;;17.64;44.75;99973.41;5103031;28;20057;-39
2023/03/13 00:44:17;;;;;;;0.30;0.30;;;;;;;17.64;44.70;99976.16;5116412;28;20096;-39
2023/03/13 00:46:42;;;;;;;0.30;0.30;;;;;;;17.65;44.84;99972.28;5108329;27;20047;-39
2023/03/13 00:49:08;;;;;;;0.30;0.30;;;;;;;17.65;44.55;99961.28;5095683;28;20043;-39
2023/03/13 00:51:34;;;;;;;0.40;0.40;;;;;;;17.65;44.55;99966.78;5113904;28;20566;-39
2023/03/13 00:54:00;;;;;;;0.40;0.40;;;;;;;17.65;44.66;99951.09;5114908;27;20572;-39
2023/03/13 00:56:26;;;;;;;0.30;0.30;;;;;;;17.64;44.80;99946.69;5116080;28;20039;-39
2023/03/13 00:58:52;;;;;;;0.30;0.30;;;;;;;17.64;44.63;99943.94;5097451;28;20070;-39
2023/03/13 01:01:21;;;;;;;0.30;0.30;;;;;;;17.64;44.63;99946.69;5097960;28;20047;-39
2023/03/13 01:03:49;;;;;;;0.30;0.30;;;;;;;17.64;44.71;99946.69;5097223;28;20058;-39
2023/03/13 01:06:18;;;;;;;0.40;0.40;;;;;;;17.63;44.61;99931.31;5097339;28;20827;-39
2023/03/13 01:08:44;;;;;;;0.30;0.30;;;;;;;17.65;44.75;99931.81;5080527;28;20124;-39
2023/03/13 01:11:12;;;;;;;0.32;0.32;;;;;;;17.65;44.55;99925.50;5115969;28;20077;-39
2023/03/13 01:13:38;;;;;;;0.28;0.28;;;;;;;17.64;44.63;99926.63;5097735;28;20564;-39
2023/03/13 01:16:06;;;;;;;0.30;0.30;;;;;;;17.64;44.66;99913.66;5097045;28;20051;-39
2023/03/13 01:18:34;;;;;;;0.30;0.30;;;;;;;17.64;44.77;99905.41;5115430;28;20126;-39
2023/03/13 01:21:00;;;;;;;0.30;0.30;;;;;;;17.64;44.51;99910.91;5115799;28;20050;-39
2023/03/13 01:23:26;;;;;;;0.40;0.40;;;;;;;17.64;44.83;99901.84;5097742;28;20689;-40
2023/03/13 01:25:54;;;;;;;0.40;0.40;;;;;;;17.65;44.74;99900.72;5113549;28;20396;-39
2023/03/13 01:28:20;;;;;;;0.25;0.25;;;;;;;17.64;44.46;99902.66;5094678;28;20043;-39
2023/03/13 01:30:45;;;;;;;0.40;0.40;;;;;;;17.64;44.60;99891.63;5095230;28;20104;-39
2023/03/13 01:33:11;;;;;;;0.30;0.30;;;;;;;17.65;44.65;99893.28;5094962;28;20047;-39
2023/03/13 01:35:37;;;;;;;0.40;0.40;;;;;;;17.65;44.54;99886.94;5107103;28;20136;-39
2023/03/13 01:38:02;;;;;;;0.30;0.30;;;;;;;17.65;44.71;99886.94;5095861;27;20475;-39
2023/03/13 01:40:28;;;;;;;0.30;0.30;;;;;;;17.65;44.70;99881.44;5094332;28;20388;-39
2023/03/13 01:42:57;;;;;;;0.30;0.30;;;;;;;17.66;44.83;99875.66;5095512;28;20048;-39
2023/03/13 01:45:42;;;;;;;;;;;;;;;17.65;44.69;99878.69;5093657;28;20067;-39
2023/03/13 01:48:08;;;;;;;0.30;0.30;;;;;;;17.64;44.86;99866.84;5098972;28;19919;-39
2023/03/13 01:50:33;;;;;;;0.30;0.30;;;;;;;17.64;44.72;99860.53;5106340;28;20411;-39
2023/03/13 01:52:59;;;;;;;0.30;0.30;;;;;;;17.66;44.77;99855.53;5115478;28;20091;-39
2023/03/13 01:55:25;;;;;;;0.32;0.32;;;;;;;17.64;45.00;99844.81;5115178;28;20785;-39
2023/03/13 01:57:51;;;;;;;0.38;0.38;;;;;;;17.65;44.62;99840.94;5114873;27;20054;-39
2023/03/13 02:00:22;;;;;;;0.35;0.35;;;;;;;17.65;44.92;99832.69;5096861;28;20035;-39
2023/03/13 02:02:50;;;;;;;0.30;0.30;;;;;;;17.64;44.68;99822.81;5096211;28;20047;-39
2023/03/13 02:05:16;;;;;;;;;;;;;;;17.67;44.83;99818.66;5115646;27;20055;-39
2023/03/13 02:07:47;;;;;;;0.30;0.30;;;;;;;17.65;44.69;99809.84;5096128;28;19919;-39
2023/03/13 02:10:14;;;;;;;0.35;0.35;;;;;;;17.65;44.74;99804.34;5096583;28;20058;-39
2023/03/13 02:12:40;;;;;;;0.30;0.30;;;;;;;17.65;44.60;99794.16;5096054;28;20225;-39
2023/03/13 02:15:14;;;;;;;0.30;0.30;;;;;;;17.65;44.66;99791.41;5114901;28;20055;-39
2023/03/13 02:17:40;;;;;;;0.30;0.30;;;;;;;17.66;44.70;99786.69;5114735;28;20048;-39
2023/03/13 02:20:07;;;;;;;0.30;0.30;;;;;;;17.65;44.77;99790.59;5114442;28;20047;-39
2023/03/13 02:22:41;;;;;;;0.30;0.30;;;;;;;17.66;44.76;99786.69;5114684;28;20039;-39
2023/03/13 02:28:00;;;;;;;0.30;0.30;;;;;;;17.66;44.71;99784.78;5174681;27;20119;-36
2023/03/13 02:30:26;;;;;;;0.30;0.30;;;;;;;17.65;44.81;99774.88;5134678;27;20255;-36
2023/03/13 02:32:52;;;;;;;0.30;0.30;;;;;;;17.64;44.61;99766.91;5133440;27;20089;-36
2023/03/13 02:35:20;;;;;;;0.30;0.30;;;;;;;17.65;44.79;99768.56;5096902;27;20478;-36
2023/03/13 02:37:50;;;;;;;0.20;0.20;;;;;;;17.65;44.80;99760.28;5113717;27;20214;-36
2023/03/13 02:40:20;;;;;;;0.30;0.30;;;;;;;17.67;44.68;99755.31;5132292;27;20077;-36
2023/03/13 02:42:47;;;;;;;0.30;0.30;;;;;;;17.65;44.47;99749.28;5113514;27;20525;-36
2023/03/13 02:45:14;;;;;;;0.30;0.30;;;;;;;17.68;44.53;99743.19;5132456;27;20063;-36
2023/03/13 02:47:39;;;;;;;0.30;0.30;;;;;;;17.65;44.61;99738.25;5099851;27;20046;-37
2023/03/13 02:50:05;;;;;;;0.30;0.30;;;;;;;17.66;44.61;99753.66;5131867;27;20043;-36
2023/03/13 02:52:37;;;;;;;0.30;0.30;;;;;;;17.66;44.78;99740.75;5132103;27;20073;-37
2023/03/13 02:55:09;;;;;;;0.30;0.30;;;;;;;17.67;44.83;99728.59;5131858;27;20281;-37
2023/03/13 02:57:35;;;;;;;0.30;0.30;;;;;;;17.66;44.79;99731.63;5113567;27;20051;-36
2023/03/13 03:00:01;;;;;;;0.30;0.30;;;;;;;17.66;44.49;99717.88;5132026;27;20192;-36
2023/03/13 03:02:27;;;;;;;0.20;0.20;;;;;;;17.66;44.98;99710.47;5131356;27;20187;-36
2023/03/13 03:04:52;;;;;;;0.30;0.30;;;;;;;17.65;44.70;99692.28;5131897;27;20043;-36
2023/03/13 03:07:18;;;;;;;0.30;0.30;;;;;;;17.64;44.62;99679.63;5132007;27;20490;-36
2023/03/13 03:09:43;;;;;;;0.30;0.30;;;;;;;17.67;44.81;99681.78;5131709;27;20096;-37
2023/03/13 03:12:09;;;;;;;0.30;0.30;;;;;;;17.67;44.59;99692.81;5131617;27;20142;-37
2023/03/13 03:14:35;;;;;;;0.30;0.30;;;;;;;17.67;44.71;99701.06;5131348;27;20062;-36
2023/03/13 03:17:00;;;;;;;0.30;0.30;;;;;;;17.68;44.86;99702.69;5131005;27;20391;-36
2023/03/13 03:19:26;;;;;;;0.40;0.40;;;;;;;17.67;44.71;99698.31;5131853;27;20043;-36
2023/03/13 03:21:52;;;;;;;0.30;0.30;;;;;;;17.67;44.61;99698.31;5130198;27;20468;-36
2023/03/13 03:24:17;;;;;;;0.30;0.30;;;;;;;17.67;44.63;99692.81;5130790;27;20043;-37
2023/03/13 03:26:43;;;;;;;0.30;0.30;;;;;;;17.68;44.64;99696.38;5130844;27;20043;-36
2023/03/13 03:29:09;;;;;;;0.30;0.30;;;;;;;17.67;44.97;99686.50;5131134;27;20057;-36
2023/03/13 03:31:35;;;;;;;0.30;0.30;;;;;;;17.67;44.60;99686.50;5131003;27;20079;-36
2023/03/13 03:34:01;;;;;;;0.30;0.30;;;;;;;17.66;44.79;99693.09;5095353;27;20051;-37
2023/03/13 03:36:27;;;;;;;0.30;0.30;;;;;;;17.65;44.68;99695.03;5108444;28;20297;-36
2023/03/13 03:38:53;;;;;;;0.40;0.40;;;;;;;17.66;44.79;99695.84;5101567;28;20039;-37
2023/03/13 03:41:19;;;;;;;0.30;0.30;;;;;;;17.66;44.77;99693.09;5117498;28;20281;-36
2023/03/13 03:43:46;;;;;;;0.40;0.40;;;;;;;17.65;44.88;99684.03;5117016;28;20039;-36
2023/03/13 03:46:13;;;;;;;0.40;0.40;;;;;;;17.67;44.79;99681.78;5098959;28;20043;-36
2023/03/13 03:48:38;;;;;;;0.30;0.30;;;;;;;17.67;44.60;99678.22;5099014;28;20043;-36
2023/03/13 03:51:05;;;;;;;0.30;0.30;;;;;;;17.67;44.76;99683.75;5117243;28;20050;-36
2023/03/13 03:53:31;;;;;;;0.40;0.40;;;;;;;17.67;44.70;99690.06;5117592;28;20097;-36
2023/03/13 03:55:57;;;;;;;0.30;0.30;;;;;;;17.67;44.76;99695.56;5117127;28;20076;-36
2023/03/13 03:58:23;;;;;;;0.30;0.30;;;;;;;17.67;44.52;99692.00;5117032;28;20046;-37
2023/03/13 04:00:48;;;;;;;0.30;0.30;;;;;;;17.67;44.64;99695.56;5099514;28;20051;-37
2023/03/13 04:03:15;;;;;;;0.30;0.30;;;;;;;17.68;44.58;99701.88;5116648;28;20039;-36
2023/03/13 04:05:41;;;;;;;0.30;0.30;;;;;;;17.68;44.83;99694.44;5117168;28;20047;-36
2023/03/13 04:08:08;;;;;;;0.30;0.30;;;;;;;17.68;44.77;99680.66;5094919;28;20411;-36
2023/03/13 04:10:33;;;;;;;0.30;0.30;;;;;;;17.69;44.70;99678.72;5095578;28;20075;-36
2023/03/13 04:12:59;;;;;;;0.30;0.30;;;;;;;17.69;44.76;99667.72;5096651;28;20054;-36
2023/03/13 04:15:24;;;;;;;0.30;0.30;;;;;;;17.68;44.60;99669.66;5096454;28;20431;-36
2023/03/13 04:17:50;;;;;;;0.30;0.30;;;;;;;17.67;44.64;99664.47;5113312;28;20054;-36
2023/03/13 04:20:16;;;;;;;0.30;0.30;;;;;;;17.69;44.66;99656.72;5117553;28;20051;-37
2023/03/13 04:22:42;;;;;;;0.30;0.30;;;;;;;17.68;44.75;99653.13;5116433;28;20047;-36
2023/03/13 04:25:08;;;;;;;0.30;0.30;;;;;;;17.69;44.73;99653.94;5104672;28;20048;-36
2023/03/13 04:27:34;;;;;;;0.30;0.30;;;;;;;17.68;44.76;99658.66;5104078;28;20067;-36
2023/03/13 04:30:00;;;;;;;0.38;0.38;;;;;;;17.68;44.57;99646.81;5098715;28;20431;-36
2023/03/13 04:32:25;;;;;;;0.30;0.30;;;;;;;17.68;44.75;99663.34;5116318;27;20058;-36
2023/03/13 04:34:51;;;;;;;0.30;0.30;;;;;;;17.66;44.71;99652.63;5116704;28;20153;-36
2023/03/13 04:37:17;;;;;;;0.30;0.30;;;;;;;17.67;44.77;99651.50;5115475;28;20138;-36
2023/03/13 04:39:43;;;;;;;0.30;0.30;;;;;;;17.67;44.63;99647.94;5080853;28;20081;-36
2023/03/13 04:42:10;;;;;;;0.38;0.38;;;;;;;17.68;44.61;99653.13;5116679;28;20242;-36
2023/03/13 04:44:36;;;;;;;0.30;0.30;;;;;;;17.67;44.64;99645.19;5115766;28;20476;-37
2023/03/13 04:47:02;;;;;;;0.30;0.30;;;;;;;17.68;44.66;99657.84;5098089;28;20513;-37
2023/03/13 04:49:27;;;;;;;0.30;0.30;;;;;;;17.67;44.68;99643.25;5098200;28;20166;-36
2023/03/13 04:51:53;;;;;;;0.30;0.30;;;;;;;17.68;44.54;99652.31;5116723;27;20068;-36
2023/03/13 04:54:19;;;;;;;0.30;0.30;;;;;;;17.68;44.80;99644.88;5116136;28;20426;-39
2023/03/13 04:56:45;;;;;;;0.38;0.38;;;;;;;17.67;44.71;99631.44;5110307;28;20061;-39
2023/03/13 04:59:11;;;;;;;0.30;0.30;;;;;;;17.68;44.86;99631.13;5114537;28;20047;-39
2023/03/13 05:01:37;;;;;;;0.30;0.30;;;;;;;17.67;44.81;99640.50;5098075;28;20051;-39
2023/03/13 05:04:03;;;;;;;0.30;0.30;;;;;;;17.68;44.88;99633.88;5114542;28;20039;-39
2023/03/13 05:06:29;;;;;;;0.30;0.30;;;;;;;17.68;44.67;99641.31;5114582;28;20610;-39
2023/03/13 05:08:55;;;;;;;0.30;0.30;;;;;;;17.67;44.98;99626.72;5115995;28;20320;-39
2023/03/13 05:11:20;;;;;;;0.30;0.30;;;;;;;17.69;44.73;99615.41;5116501;28;20498;-38
2023/03/13 05:13:46;;;;;;;0.30;0.30;;;;;;;17.67;44.88;99615.72;5097720;28;20063;-39
2023/03/13 05:16:12;;;;;;;0.30;0.30;;;;;;;17.68;44.72;99611.84;5115485;28;20054;-39
2023/03/13 05:18:38;;;;;;;0.40;0.40;;;;;;;17.67;44.64;99606.66;5115432;28;20061;-39
2023/03/13 05:21:04;;;;;;;0.30;0.30;;;;;;;17.68;44.83;99606.34;5116203;28;20635;-39
2023/03/13 05:23:30;;;;;;;0.30;0.30;;;;;;;17.69;44.76;99604.41;5097338;28;20486;-39
2023/03/13 05:25:56;;;;;;;0.30;0.30;;;;;;;17.66;44.77;99600.31;5115019;28;20055;-39
2023/03/13 05:28:21;;;;;;;0.30;0.30;;;;;;;17.68;44.72;99617.34;5115580;28;20058;-39
2023/03/13 05:30:47;;;;;;;0.30;0.30;;;;;;;17.68;44.68;99602.75;5115639;27;20383;-39
2023/03/13 05:33:13;;;;;;;0.30;0.30;;;;;;;17.68;44.76;99597.25;5115510;28;20092;-39
2023/03/13 05:35:39;;;;;;;0.30;0.30;;;;;;;17.67;44.75;99596.44;5115595;28;20074;-39
2023/03/13 05:38:04;;;;;;;0.30;0.30;;;;;;;17.68;44.76;99602.75;5114675;28;20423;-39
2023/03/13 05:40:30;;;;;;;0.30;0.30;;;;;;;17.68;44.76;99606.34;5115734;28;20481;-39
2023/03/13 05:42:55;;;;;;;0.30;0.30;;;;;;;17.68;44.84;99614.59;5114859;28;20443;-39
2023/03/13 05:45:21;;;;;;;0.30;0.30;;;;;;;17.67;44.81;99604.72;5111865;28;20058;-39
2023/03/13 05:47:47;;;;;;;0.30;0.30;;;;;;;17.69;44.87;99620.91;5110192;28;20173;-39
2023/03/13 05:50:13;;;;;;;0.30;0.30;;;;;;;17.69;44.74;99618.16;5124930;27;20035;-39
2023/03/13 05:52:38;;;;;;;0.30;0.30;;;;;;;17.68;44.80;99603.59;5110161;28;20487;-39
2023/03/13 05:55:04;;;;;;;0.40;0.40;;;;;;;17.69;44.83;99593.38;5111528;28;20122;-39
2023/03/13 05:57:30;;;;;;;0.30;0.30;;;;;;;17.67;44.84;99612.97;5106131;28;20482;-39
2023/03/13 05:59:56;;;;;;;0.30;0.30;;;;;;;17.69;44.83;99602.44;5109896;28;20051;-39
2023/03/13 06:02:21;;;;;;;0.32;0.32;;;;;;;17.69;44.84;99609.91;5112094;27;20500;-39
2023/03/13 06:04:47;;;;;;;0.30;0.30;;;;;;;17.69;44.87;99607.97;5112751;28;20054;-38
2023/03/13 06:07:13;;;;;;;0.30;0.30;;;;;;;17.69;44.85;99602.44;5105799;28;20127;-40
2023/03/13 06:09:39;;;;;;;0.30;0.30;;;;;;;17.69;44.68;99607.16;5107711;28;20490;-39
2023/03/13 06:12:07;;;;;;;0.35;0.35;;;;;;;17.68;44.76;99611.03;5112165;28;20066;-39
2023/03/13 06:14:32;;;;;;;0.40;0.40;;;;;;;17.70;44.73;99611.53;5111523;27;20454;-39
2023/03/13 06:16:58;;;;;;;0.30;0.30;;;;;;;17.67;44.69;99612.97;5113875;28;20055;-39
2023/03/13 06:19:24;;;;;;;0.30;0.30;;;;;;;17.68;44.65;99603.59;5109913;28;20471;-39
2023/03/13 06:21:50;;;;;;;0.30;0.30;;;;;;;17.69;44.83;99594.19;5113601;28;20067;-39
2023/03/13 06:24:16;;;;;;;0.22;0.22;;;;;;;17.68;44.83;99602.75;5075042;28;20051;-39
2023/03/13 06:26:42;;;;;;;0.40;0.40;;;;;;;17.68;44.87;99603.59;5111236;28;20079;-39
2023/03/13 06:29:09;;;;;;;0.40;0.40;;;;;;;17.69;44.73;99615.41;5093760;28;20047;-39
2023/03/13 06:31:34;;;;;;;0.30;0.30;;;;;;;17.68;44.80;99609.09;5092058;28;20262;-40
2023/03/13 06:34:00;;;;;;;0.30;0.30;;;;;;;17.68;44.76;99600.81;5109920;28;20039;-39
2023/03/13 06:36:26;;;;;;;0.30;0.30;;;;;;;17.68;44.85;99595.31;5102808;28;20089;-40
2023/03/13 06:38:52;;;;;;;0.30;0.30;;;;;;;17.67;45.22;99598.38;5083774;28;20055;-39
2023/03/13 06:41:17;;;;;;;0.30;0.30;;;;;;;17.70;44.95;99617.88;5105814;28;20080;-40
2023/03/13 06:43:43;;;;;;;0.40;0.40;;;;;;;17.67;44.92;99604.72;5109771;28;20301;-39
2023/03/13 06:46:16;;;;;;;0.30;0.30;;;;;;;17.70;44.82;99622.53;5106204;27;20255;-39
2023/03/13 06:48:43;;;;;;;0.30;0.30;;;;;;;17.69;44.91;99626.41;5080410;28;20044;-39
2023/03/13 06:51:12;;;;;;;0.30;0.30;;;;;;;17.69;44.86;99626.41;5106091;27;20066;-39
2023/03/13 06:53:38;;;;;;;0.20;0.20;;;;;;;17.70;44.75;99622.53;5083836;28;20701;-39
2023/03/13 06:56:04;;;;;;;0.30;0.30;;;;;;;17.71;44.95;99626.94;5067904;28;20414;-39
2023/03/13 06:58:30;;;;;;;0.40;0.40;;;;;;;17.69;44.94;99618.97;5074820;28;20039;-39
2023/03/13 07:01:06;;;;;;;0.30;0.30;;;;;;;17.69;45.01;99618.16;5095309;28;20096;-39
2023/03/13 07:03:33;;;;;;;0.35;0.35;;;;;;;17.70;44.86;99617.03;5092410;28;20131;-39
2023/03/13 07:05:59;;;;;;;0.30;0.30;;;;;;;17.70;44.99;99622.53;5093774;28;20043;-39
2023/03/13 07:08:25;;;;;;;0.30;0.30;;;;;;;17.69;44.96;99613.47;5093512;28;20039;-39
2023/03/13 07:10:51;;;;;;;0.30;0.30;;;;;;;17.69;45.05;99607.97;5084080;28;20047;-39
2023/03/13 07:13:20;;;;;;;0.20;0.20;;;;;;;17.70;45.06;99612.38;5108503;27;20104;-39
2023/03/13 07:15:47;;;;;;;;;;;;;;;17.72;45.16;99623.88;5068552;28;20074;-39
2023/03/13 07:18:13;;;;;;;0.30;0.30;;;;;;;17.73;45.26;99614.50;5101841;28;19965;-39
2023/03/13 07:20:38;;;;;;;0.30;0.30;;;;;;;17.74;45.07;99612.59;5109659;28;21354;-39
2023/03/13 07:23:04;;;;;;;0.30;0.30;;;;;;;17.72;45.22;99595.53;5106327;28;20042;-39
2023/03/13 07:25:30;;;;;;;0.30;0.30;;;;;;;17.73;45.11;99586.16;5109467;28;20412;-39
2023/03/13 07:27:56;;;;;;;0.30;0.30;;;;;;;17.73;45.27;99592.47;5103782;27;20043;-39
2023/03/13 07:30:21;;;;;;;0.40;0.40;;;;;;;17.73;45.04;99592.47;5095195;27;20744;-39
2023/03/13 07:32:47;;;;;;;0.30;0.30;;;;;;;17.74;45.13;99583.13;5107340;27;20038;-40
2023/03/13 07:35:13;;;;;;;0.30;0.30;;;;;;;17.74;45.09;99579.53;5091680;27;20039;-39
2023/03/13 07:37:39;;;;;;;0.30;0.30;;;;;;;17.74;45.11;99585.88;5107621;28;20084;-39
2023/03/13 07:40:08;;;;;;;0.30;0.30;;;;;;;17.74;45.15;99571.28;5091219;27;20050;-38
2023/03/13 07:42:33;;;;;;;0.30;0.30;;;;;;;17.76;45.27;99574.56;5109021;27;20511;-39
2023/03/13 07:44:59;;;;;;;0.30;0.30;;;;;;;17.75;45.12;99573.75;5087757;28;20042;-39
2023/03/13 07:47:25;;;;;;;0.40;0.40;;;;;;;17.76;45.13;99586.41;5106896;27;20047;-39
2023/03/13 07:49:52;;;;;;;0.35;0.35;;;;;;;17.77;45.23;99588.03;5096231;28;20059;-39
2023/03/13 07:52:18;;;;;;;0.30;0.30;;;;;;;17.78;45.15;99577.81;5096322;27;20511;-39
2023/03/13 07:54:44;;;;;;;0.20;0.20;;;;;;;17.77;45.05;99565.19;5103585;28;20055;-39
2023/03/13 07:57:09;;;;;;;0.32;0.32;;;;;;;17.78;45.20;99580.56;5105241;28;20135;-39
2023/03/13 07:59:35;;;;;;;0.28;0.28;;;;;;;17.79;45.10;99576.72;5095359;28;20131;-39
2023/03/13 08:02:01;;;;;;;0.30;0.30;;;;;;;17.79;45.16;99566.53;5090739;28;20039;-39
2023/03/13 08:04:27;;;;;;;0.30;0.30;;;;;;;17.79;45.13;99569.28;5073574;28;20459;-39
2023/03/13 08:06:53;;;;;;;0.30;0.30;;;;;;;17.80;45.06;99570.09;5089390;28;20070;-39
2023/03/13 08:09:19;;;;;;;0.30;0.30;;;;;;;17.82;45.12;99564.25;5082560;27;20058;-39
2023/03/13 08:11:45;;;;;;;0.30;0.30;;;;;;;17.81;45.22;99568.97;5070772;27;20755;-39
2023/03/13 08:14:11;;;;;;;0.30;0.30;;;;;;;17.82;45.16;99576.09;5085501;27;20390;-39
2023/03/13 08:16:37;;;;;;;0.30;0.30;;;;;;;17.83;45.42;99566.69;5100789;28;20051;-39
2023/03/13 08:19:04;;;;;;;0.30;0.30;;;;;;;17.85;45.06;99577.44;5104057;27;20039;-39
2023/03/13 08:21:33;;;;;;;0.30;0.30;;;;;;;17.84;45.08;99570.31;5079307;28;20511;-39
2023/03/13 08:24:02;;;;;;;0.30;0.30;;;;;;;17.84;45.26;99571.13;5079872;27;20047;-39
2023/03/13 08:26:29;;;;;;;0.40;0.40;;;;;;;17.98;45.65;99571.94;5090792;28;20047;-41
2023/03/13 08:28:57;;;;;;;0.30;0.30;;;;;;;17.96;46.18;99570.59;5097928;27;20058;-39
2023/03/13 08:31:25;;;;;;;0.25;0.25;;;;;;;17.92;46.64;99581.44;5066669;28;20542;-39
2023/03/13 08:33:51;;;;;;;0.30;0.30;;;;;;;17.90;46.63;99574.56;5097994;27;20044;-39
2023/03/13 08:36:20;;;;;;;0.30;0.30;;;;;;;17.89;46.58;99578.47;5084022;27;20054;-40
2023/03/13 08:38:46;;;;;;;0.30;0.30;;;;;;;17.86;46.30;99574.38;5083629;27;20067;-39
2023/03/13 08:41:14;;;;;;;0.30;0.30;;;;;;;17.93;46.76;99569.28;5103584;27;20061;-39
2023/03/13 08:43:40;;;;;;;0.30;0.30;;;;;;;17.96;46.92;99574.19;5101681;27;20039;-39
2023/03/13 08:46:05;;;;;;;0.40;0.40;;;;;;;17.95;47.03;99560.69;5103720;27;20074;-39
2023/03/13 08:48:31;;;;;;;0.20;0.20;;;;;;;17.96;47.02;99570.59;5098472;27;20051;-39
2023/03/13 08:51:00;;;;;;;0.30;0.30;;;;;;;17.99;47.37;99567.22;5103468;27;20035;-39
2023/03/13 08:53:26;;;;;;;0.30;0.30;;;;;;;17.98;46.93;99566.41;5089650;28;20099;-39
2023/03/13 08:55:52;;;;;;;0.30;0.30;;;;;;;17.98;46.89;99560.09;5104506;27;20050;-39
2023/03/13 08:58:18;;;;;;;0.30;0.30;;;;;;;17.97;46.90;99563.97;5071566;28;20059;-39
2023/03/13 09:00:44;;;;;;;0.30;0.30;;;;;;;17.97;46.82;99570.31;5103756;28;20104;-40
2023/03/13 09:03:09;;;;;;;0.40;0.40;;;;;;;17.97;46.87;99561.22;5099132;28;20053;-39
2023/03/13 09:05:39;;;;;;;0.30;0.30;;;;;;;17.96;46.70;99552.16;5096345;27;20051;-39
2023/03/13 09:08:21;;;;;;;0.40;0.40;;;;;;;17.96;46.69;99546.63;5091239;28;20294;-39
2023/03/13 09:10:46;;;;;;;0.30;0.30;;;;;;;17.98;46.84;99549.09;5089804;27;20051;-39
2023/03/13 09:13:12;;;;;;;0.30;0.30;;;;;;;17.98;46.71;99558.16;5096579;27;20980;-39
2023/03/13 09:15:38;;;;;;;0.30;0.30;;;;;;;17.98;46.42;99541.63;5099017;28;20598;-39
2023/03/13 09:18:05;;;;;;;0.30;0.30;;;;;;;17.98;46.58;99533.38;5102131;28;20362;-40
2023/03/13 09:20:30;;;;;;;0.30;0.30;;;;;;;17.98;46.63;99532.56;5098352;27;20221;-40
2023/03/13 09:22:56;;;;;;;0.30;0.30;;;;;;;17.98;46.55;99533.38;5103969;27;20051;-40
2023/03/13 09:25:22;;;;;;;0.30;0.30;;;;;;;17.99;46.52;99529.47;5098172;27;20187;-39
2023/03/13 09:27:47;;;;;;;0.30;0.30;;;;;;;17.99;46.41;99518.47;5082091;28;20047;-39
2023/03/13 09:30:13;;;;;;;0.30;0.30;;;;;;;18.00;47.81;99517.38;5103433;27;20663;-41
2023/03/13 09:32:39;;;;;;;0.30;0.30;;;;;;;18.03;46.76;99513.97;5094477;27;20035;-41
2023/03/13 09:35:05;;;;;;;0.30;0.30;;;;;;;18.03;46.71;99516.72;5085316;27;20406;-39
2023/03/13 09:37:30;;;;;;;0.30;0.30;;;;;;;18.02;46.73;99512.34;5093015;27;20512;-39
2023/03/13 09:39:57;;;;;;;0.30;0.30;;;;;;;18.09;47.42;99534.00;5088044;27;20043;-39
2023/03/13 09:42:32;;;;;;;0.30;0.30;;;;;;;18.05;47.31;99509.00;5089184;27;20242;-39
2023/03/13 09:45:03;;;;;;;0.30;0.30;;;;;;;18.05;47.41;99517.25;5096512;27;20501;-39
2023/03/13 09:47:39;;;;;;;0.22;0.22;;;;;;;18.05;47.33;99506.22;5098153;27;20466;-39
2023/03/13 09:50:13;;;;;;;0.30;0.30;;;;;;;18.05;47.23;99488.91;5095772;27;20051;-39
2023/03/13 09:52:40;;;;;;;0.20;0.20;;;;;;;18.06;47.20;99498.78;5091852;27;20515;-39
2023/03/13 09:55:27;;;;;;;0.30;0.30;;;;;;;18.05;46.97;99497.97;5073378;27;20047;-39
2023/03/13 09:58:02;;;;;;;0.30;0.30;;;;;;;18.16;47.17;99503.25;5076685;28;20066;-39
2023/03/13 10:00:30;;;;;;;0.30;0.30;;;;;;;18.13;47.39;99492.84;5080297;28;20067;-39
2023/03/13 10:03:01;;;;;;;0.20;0.20;;;;;;;18.12;47.55;99488.47;5097142;27;20062;-39
2023/03/13 10:05:27;;;;;;;0.35;0.35;;;;;;;18.10;47.43;99485.22;5093573;27;20491;-39
2023/03/13 10:08:00;;;;;;;0.40;0.40;;;;;;;18.10;47.41;99479.69;5069547;28;20067;-39
2023/03/13 10:10:36;;;;;;;0.35;0.35;;;;;;;18.09;47.34;99480.81;5096148;27;20035;-39
2023/03/13 10:13:11;;;;;;;0.30;0.30;;;;;;;18.10;47.47;99476.94;5094159;27;20050;-39
2023/03/13 10:15:45;;;;;;;0.30;0.30;;;;;;;18.11;47.39;99476.63;5077269;27;20219;-39
2023/03/13 10:18:16;;;;;;;0.30;0.30;;;;;;;18.11;47.39;99465.59;5082627;28;20411;-39
2023/03/13 10:20:43;;;;;;;0.30;0.30;;;;;;;18.12;47.21;99469.19;5104914;28;20368;-39
2023/03/13 10:23:18;;;;;;;0.30;0.30;;;;;;;18.25;47.75;99462.81;5075025;28;20096;-39
2023/03/13 10:25:43;;;;;;;0.32;0.32;;;;;;;18.19;47.72;99450.28;5090979;27;20522;-39
2023/03/13 10:28:11;;;;;;;0.30;0.30;;;;;;;18.17;47.54;99450.59;5091883;27;20047;-39
2023/03/13 10:30:38;;;;;;;0.20;0.20;;;;;;;18.25;48.35;99454.56;5080290;28;20248;-39
2023/03/13 10:35:42;;;;;;;0.30;0.30;;;;;;;18.19;47.61;99442.03;5146201;27;20128;-38
2023/03/13 10:38:23;;;;;;;0.30;0.30;;;;;;;18.18;47.47;99451.44;5125263;27;20038;-39
2023/03/13 10:41:00;;;;;;;0.30;0.30;;;;;;;18.17;47.62;99436.81;5121112;27;20673;-39
2023/03/13 10:43:27;;;;;;;0.30;0.30;;;;;;;18.17;47.31;99439.56;5100410;27;20043;-39
2023/03/13 10:45:52;;;;;;;0.30;0.30;;;;;;;18.16;47.41;99409.56;5115004;27;20271;-38
2023/03/13 10:48:22;;;;;;;0.30;0.30;;;;;;;18.17;47.57;99420.28;5109378;27;20481;-39
2023/03/13 10:50:50;;;;;;;0.30;0.30;;;;;;;18.17;47.50;99423.03;5125896;27;20240;-38
2023/03/13 10:53:23;;;;;;;0.20;0.20;;;;;;;18.17;47.36;99420.28;5132779;27;20054;-38
2023/03/13 10:55:51;;;;;;;0.30;0.30;;;;;;;18.17;47.33;99419.47;5112039;27;20085;-39
2023/03/13 10:58:22;;;;;;;0.30;0.30;;;;;;;18.17;47.48;99414.75;5114148;27;20413;-39
2023/03/13 11:00:47;;;;;;;0.30;0.30;;;;;;;18.18;47.44;99404.59;5132999;27;20354;-39
2023/03/13 11:03:18;;;;;;;0.30;0.30;;;;;;;18.18;47.21;99405.41;5131760;27;20049;-39
2023/03/13 11:05:56;;;;;;;0.30;0.30;;;;;;;18.18;47.42;99424.69;5115094;27;20111;-39
2023/03/13 11:08:25;;;;;;;0.20;0.20;;;;;;;18.19;47.47;99408.97;5133762;27;20395;-39
2023/03/13 11:10:57;;;;;;;0.30;0.30;;;;;;;18.18;47.20;99407.34;5115126;27;20042;-39
2023/03/13 11:13:41;;;;;;;0.30;0.30;;;;;;;18.19;47.46;99404.25;5112677;27;20114;-39
2023/03/13 11:16:28;;;;;;;0.30;0.30;;;;;;;18.20;47.20;99396.81;5096403;27;20039;-39
2023/03/13 11:19:07;;;;;;;0.30;0.30;;;;;;;18.19;47.33;99387.72;5134714;27;20444;-39
2023/03/13 11:21:41;;;;;;;0.30;0.30;;;;;;;18.21;47.21;99390.16;5130350;27;20545;-39
2023/03/13 11:24:15;;;;;;;0.30;0.30;;;;;;;18.20;47.16;99392.09;5126620;27;20077;-39
2023/03/13 11:26:47;;;;;;;0.30;0.30;;;;;;;18.21;47.23;99390.16;5134618;27;20388;-39
2023/03/13 11:29:41;;;;;;;0.30;0.30;;;;;;;18.21;47.24;99379.94;5137997;27;20512;-39
2023/03/13 11:32:19;;;;;;;0.30;0.30;;;;;;;18.22;47.28;99364.22;5123786;27;20478;-39
2023/03/13 11:34:53;;;;;;;0.20;0.20;;;;;;;18.22;47.26;99367.00;5116916;27;20035;-39
2023/03/13 11:37:19;;;;;;;0.30;0.30;;;;;;;18.21;47.12;99355.16;5099204;27;20097;-38
2023/03/13 11:40:25;;;;;;;0.30;0.30;;;;;;;18.22;47.23;99358.72;5086459;27;20264;-39